メインページ
METAR-TAF:

METAR-TAF

空港 :

サンティアゴ, チリ

アルトゥーロ・メリノ・ベニテス国際空港

緯度: 33-23S, 経度: 070-47W, 海抜: 475m

現時点の気象観測

当レポートは14分前の19:00(UTC)に作成
南西の風 12kt、から西/南西の間で変化する
気温 29°C
湿度 29%
気圧 1015 hPa
視程10km以上
1,500メートル以下は雲なし、積乱雲なし

METAR: SCEL 251900Z 22012KT 180V240 CAVOK 29/09 Q1015 NOSIG

時間: 16:14 (19:14 UTC)

予報

当レポートは3時間4分前の16:10(UTC)に作成
予報は25日の 18時(UTC)から 26日の 18時(UTC)まで有効
南西の風 12kt
視程10km以上
1,500メートル以下は雲なし、積乱雲なし
26日の 02時(UTC)から 26日の 04時(UTC)まで徐々に
の風 4kt
26日の 06時(UTC)から 26日の 12時(UTC)まで一時的に
の風 kt
視程: 7000m
26日の 16時(UTC)から 26日の 18時(UTC)まで徐々に
南/南西の風 12kt

TAF: SCEL 251610Z 2518/2618 22012KT CAVOK TX30/2519Z TN12/2610Z BECMG 2602/2604 17004KT TEMPO 2606/2612 00000KT 7000 NSC BECMG 2616/2618 21012KT

4,000以上の空港の気象観測と天気予報(METAR報とTAF報)

利用可能な観測所は地図上に黄色い丸と赤い丸で示す。

丸の上にカーソルを重ねると観測所名を参照できる。

次にクリックすると気象観測と天気予報を参照できる。

マップの切り替え:黒色「×」印の緑ボタンをクリックして拡大、「-」印の緑ボタンをクリックして縮小、緑色の三角印をクリックして隣りの地図に切り替え


METAR-TAF: